Карточка аэропорта URSS

Внимание!
Информация на этой странице в стадии наполнения.
Если вы не увидели какой-то информации, или заметили неточность - пожалуйста сообщите нам!
Спасибо!
Команда RU-STAFF
Название аэропортаСочи
Название аэропорта (англ.)Sochi
Превышение89 ft. (27.1 m.)
Координаты43°26.634', 39°56.55'
Высота перехода1100m
Эшелон переходаFL050
Коды ответчика1060-1077
Зона ОрВДРостов-на-Дону РПИ (URRV)
Данные METARURSS 231000Z 17002MPS 120V200 9999 NSC 19/12 Q1020 WS ALL RWY R02/010070 R06/010070 NOSIG RMK R06/18002MPS QFE764
Проноз погоды (TAF)URSS 230756Z 2309/2409 16004G09MPS 9999 SCT100 BECMG 2312/2314 24003G08MPS BECMG 2315/2316 04003G08MPS BKN100 BECMG 2407/2409 15004G09MPS OVC100
NOTAMshow/hide NOTAM
AWOS   TABLE

Информация о ВПП

ВПП Длина ВПП (м.) Покрытие Курс ВПП Частота ILS
062890Цементобетон58111.1
242890Цементобетон238 
022500Цементобетон22110.5
202500Цементобетон202 

Диспетчерские позиции

Позывной Наименование органа УВД Частота
URSS_APPСочи-Подход118.300
URSS_DELСочи-Деливери132.700
URSS_FM1119.000
URSS_GNDСочи-Руление119.000
URSS_R_APPСочи-Круг119.700
URSS_TWRСочи-Старт121.200



Спутниковое изображение